createdAt,value
2017-10-07T00:01:46.762Z,11.10
2017-10-07T00:04:14.947Z,11.10
2017-10-07T00:06:43.237Z,11.10
2017-10-07T00:09:11.330Z,11.10
2017-10-07T00:11:39.478Z,11.10
2017-10-07T00:14:07.571Z,11.10
2017-10-07T00:16:36.447Z,11.10
2017-10-07T00:19:04.553Z,11.10
2017-10-07T00:21:32.626Z,11.10
2017-10-07T00:24:00.729Z,11.10
2017-10-07T00:26:29.579Z,11.10
2017-10-07T00:28:58.543Z,11.10
2017-10-07T00:31:26.628Z,11.10
2017-10-07T00:33:54.739Z,11.00
2017-10-07T00:36:22.822Z,11.00
2017-10-07T00:38:51.023Z,11.00
2017-10-07T00:41:19.312Z,11.00
2017-10-07T00:43:47.415Z,11.00
2017-10-07T00:46:15.504Z,11.00
2017-10-07T00:48:43.636Z,11.10
2017-10-07T00:51:11.743Z,11.00
2017-10-07T00:53:39.831Z,11.00
2017-10-07T00:56:08.340Z,11.00
2017-10-07T00:58:36.432Z,10.90
2017-10-07T01:01:04.516Z,10.90
2017-10-07T01:03:34.127Z,10.80
2017-10-07T01:06:02.227Z,10.80
2017-10-07T01:10:59.802Z,10.80
2017-10-07T01:13:27.903Z,10.80
2017-10-07T01:15:55.983Z,10.80
2017-10-07T01:18:24.074Z,10.80
2017-10-07T01:20:52.180Z,10.80
2017-10-07T01:26:19.323Z,10.80
2017-10-07T01:28:47.394Z,10.80
2017-10-07T01:31:15.495Z,10.80
2017-10-07T01:33:43.601Z,10.90
2017-10-07T01:36:11.703Z,10.90
2017-10-07T01:38:40.611Z,10.90
2017-10-07T01:41:08.694Z,10.90
2017-10-07T01:43:37.553Z,10.90
2017-10-07T01:46:05.677Z,10.90
2017-10-07T01:48:34.885Z,10.90
2017-10-07T01:51:02.999Z,10.80
2017-10-07T01:53:31.066Z,10.80
2017-10-07T01:55:59.541Z,10.80
2017-10-07T01:58:27.639Z,10.80
2017-10-07T02:00:55.721Z,10.80
2017-10-07T02:03:24.590Z,10.70
2017-10-07T02:05:52.668Z,10.80
2017-10-07T02:08:20.763Z,10.70
2017-10-07T02:10:49.627Z,10.70
2017-10-07T02:15:48.607Z,10.70
2017-10-07T02:18:16.687Z,10.60
2017-10-07T02:20:44.801Z,10.70
2017-10-07T02:23:12.922Z,10.60
2017-10-07T02:25:41.041Z,10.60
2017-10-07T02:28:09.144Z,10.60
2017-10-07T02:30:37.250Z,10.60
2017-10-07T02:33:06.102Z,10.50
2017-10-07T02:38:03.542Z,10.50
2017-10-07T02:40:31.654Z,10.50
2017-10-07T02:42:59.771Z,10.50
2017-10-07T02:45:27.875Z,10.50
2017-10-07T02:47:55.977Z,10.50
2017-10-07T02:50:24.052Z,10.50
2017-10-07T02:52:52.563Z,10.50
2017-10-07T02:55:20.647Z,10.50
2017-10-07T02:57:48.741Z,10.40
2017-10-07T03:00:16.843Z,10.50
2017-10-07T03:02:44.944Z,10.50
2017-10-07T03:05:13.029Z,10.40
2017-10-07T03:07:41.138Z,10.40
2017-10-07T03:10:09.225Z,10.50
2017-10-07T03:12:38.071Z,10.60
2017-10-07T03:15:06.568Z,10.70
2017-10-07T03:17:34.650Z,10.80
2017-10-07T03:20:03.529Z,10.90
2017-10-07T03:22:31.623Z,10.90
2017-10-07T03:25:00.474Z,10.90
2017-10-07T03:27:28.619Z,10.90
2017-10-07T03:29:56.682Z,10.90
2017-10-07T03:32:24.780Z,10.80
2017-10-07T03:34:52.907Z,10.80
2017-10-07T03:37:20.980Z,10.80
2017-10-07T03:39:49.058Z,10.80
2017-10-07T03:42:17.571Z,10.70
2017-10-07T03:44:47.193Z,10.60
2017-10-07T03:47:15.282Z,10.70
2017-10-07T03:49:43.383Z,10.70
2017-10-07T03:52:11.471Z,10.70
2017-10-07T03:54:41.070Z,10.70
2017-10-07T03:57:09.185Z,10.70
2017-10-07T03:59:37.263Z,10.70
2017-10-07T04:02:05.355Z,10.70
2017-10-07T04:04:33.461Z,10.70
2017-10-07T04:07:02.306Z,10.70
2017-10-07T04:09:30.409Z,10.70
2017-10-07T04:11:59.267Z,10.70
2017-10-07T04:14:27.370Z,10.70
2017-10-07T04:16:56.961Z,10.50
2017-10-07T04:19:25.081Z,10.50
2017-10-07T04:21:53.191Z,10.60
2017-10-07T04:24:21.652Z,10.60
2017-10-07T04:26:49.766Z,10.60
2017-10-07T04:29:17.882Z,10.50
2017-10-07T04:31:45.973Z,10.40
2017-10-07T04:36:43.443Z,10.40
2017-10-07T04:39:11.522Z,10.40
2017-10-07T04:41:39.629Z,10.40
2017-10-07T04:44:07.704Z,10.50
2017-10-07T04:49:05.172Z,10.70
2017-10-07T04:51:33.654Z,10.70
2017-10-07T04:54:01.799Z,10.70
2017-10-07T04:56:30.658Z,10.90
2017-10-07T04:58:58.760Z,10.80
2017-10-07T05:01:26.857Z,10.80
2017-10-07T05:03:54.946Z,10.80
2017-10-07T05:06:23.083Z,10.70
2017-10-07T05:08:51.295Z,10.70
2017-10-07T05:11:19.462Z,10.60
2017-10-07T05:13:47.547Z,10.70
2017-10-07T05:16:16.468Z,10.90
2017-10-07T05:18:44.573Z,11.00
2017-10-07T05:21:14.164Z,10.90
2017-10-07T05:23:42.252Z,10.90
2017-10-07T05:26:10.374Z,10.80
2017-10-07T05:28:39.250Z,10.90
2017-10-07T05:31:07.379Z,11.00
2017-10-07T05:33:35.471Z,10.90
2017-10-07T05:36:03.638Z,10.90
2017-10-07T05:38:31.711Z,11.00
2017-10-07T05:40:59.800Z,10.90
2017-10-07T05:43:27.898Z,10.70
2017-10-07T05:45:56.758Z,10.40
2017-10-07T05:48:25.241Z,10.20
2017-10-07T05:50:53.361Z,10.30
2017-10-07T05:53:21.842Z,10.20
2017-10-07T06:00:48.651Z,10.10
2017-10-07T06:03:17.204Z,10.30
2017-10-07T06:08:14.620Z,10.40
2017-10-07T06:10:42.726Z,10.20
2017-10-07T06:13:10.848Z,10.30
2017-10-07T06:15:38.934Z,10.30
2017-10-07T06:18:07.011Z,10.40
2017-10-07T06:20:35.094Z,10.50
2017-10-07T06:23:03.170Z,10.50
2017-10-07T06:25:31.653Z,10.60
2017-10-07T06:28:00.147Z,10.60
2017-10-07T06:30:29.771Z,10.80
2017-10-07T06:35:27.179Z,10.90
2017-10-07T06:37:55.278Z,10.80
2017-10-07T06:40:23.759Z,10.80
2017-10-07T06:42:51.825Z,10.80
2017-10-07T06:45:19.925Z,10.90
2017-10-07T06:47:48.777Z,10.90
2017-10-07T06:50:16.877Z,10.80
2017-10-07T06:52:45.714Z,10.80
2017-10-07T06:55:13.790Z,10.80
2017-10-07T06:57:42.273Z,10.70
2017-10-07T07:00:10.383Z,10.80
2017-10-07T07:02:38.449Z,11.00
2017-10-07T07:05:06.521Z,11.20
2017-10-07T07:07:34.613Z,11.30
2017-10-07T07:10:03.461Z,11.30
2017-10-07T07:12:31.947Z,11.40
2017-10-07T07:15:00.041Z,11.40
2017-10-07T07:17:28.133Z,11.30
2017-10-07T07:19:57.002Z,11.00
2017-10-07T07:22:26.582Z,10.90
2017-10-07T07:24:55.433Z,10.90
2017-10-07T07:27:24.294Z,10.70
2017-10-07T07:29:52.385Z,10.70
2017-10-07T07:32:21.233Z,10.70
2017-10-07T07:34:49.310Z,10.80
2017-10-07T07:37:17.393Z,10.90
2017-10-07T07:39:45.490Z,10.90
2017-10-07T07:42:14.351Z,12.10
2017-10-07T07:44:42.446Z,12.10
2017-10-07T07:47:10.570Z,12.20
2017-10-07T07:49:39.785Z,12.20
2017-10-07T07:52:07.962Z,12.10
2017-10-07T07:54:36.042Z,12.10
2017-10-07T07:57:04.222Z,12.10
2017-10-07T07:59:33.817Z,12.00
2017-10-07T08:02:02.681Z,11.80
2017-10-07T08:04:31.923Z,11.80
2017-10-07T08:06:59.989Z,11.60
2017-10-07T08:09:28.094Z,11.60
2017-10-07T08:11:56.202Z,11.40
2017-10-07T08:14:24.275Z,11.40
2017-10-07T08:16:52.341Z,11.30
2017-10-07T08:19:20.443Z,11.30
2017-10-07T08:21:48.530Z,11.30
2017-10-07T08:24:16.630Z,11.40
2017-10-07T08:26:45.466Z,11.40
2017-10-07T08:29:13.570Z,11.50
2017-10-07T08:31:41.662Z,11.50
2017-10-07T08:34:10.870Z,11.50
2017-10-07T08:36:38.962Z,11.50
2017-10-07T08:39:07.061Z,11.60
2017-10-07T08:41:35.134Z,11.70
2017-10-07T08:44:03.210Z,11.80
2017-10-07T08:46:31.810Z,11.70
2017-10-07T08:48:59.887Z,11.90
2017-10-07T08:51:27.967Z,11.70
2017-10-07T08:53:56.822Z,11.50
2017-10-07T08:56:25.059Z,11.50
2017-10-07T08:58:53.159Z,11.80
2017-10-07T09:01:21.234Z,12.00
2017-10-07T09:03:49.711Z,12.10
2017-10-07T09:06:18.197Z,12.10
2017-10-07T09:08:47.078Z,12.30
2017-10-07T09:11:15.153Z,12.60
2017-10-07T09:13:43.225Z,12.70
2017-10-07T09:16:12.454Z,12.70
2017-10-07T09:18:40.521Z,13.20
2017-10-07T09:21:08.614Z,14.00
2017-10-07T09:23:36.682Z,14.60
2017-10-07T09:26:05.187Z,14.80
2017-10-07T09:28:33.708Z,14.50
2017-10-07T09:31:01.763Z,14.40
2017-10-07T09:33:29.857Z,14.40
2017-10-07T09:35:58.714Z,14.20
2017-10-07T09:38:27.223Z,13.50
2017-10-07T09:40:56.033Z,13.20
2017-10-07T09:43:24.111Z,12.80
2017-10-07T09:45:53.721Z,12.80
2017-10-07T09:48:23.325Z,12.80
2017-10-07T09:50:51.403Z,12.60
2017-10-07T09:53:19.878Z,12.60
2017-10-07T09:55:48.370Z,12.50
2017-10-07T09:58:16.847Z,12.40
2017-10-07T10:00:44.930Z,12.40
2017-10-07T10:03:13.017Z,12.40
2017-10-07T10:05:41.885Z,12.40
2017-10-07T10:08:10.046Z,12.40
2017-10-07T10:10:38.152Z,12.40
2017-10-07T10:13:06.264Z,12.50
2017-10-07T10:15:35.127Z,12.50
2017-10-07T10:20:32.584Z,12.40
2017-10-07T10:23:01.794Z,12.70
2017-10-07T10:25:30.663Z,12.80
2017-10-07T10:27:58.768Z,12.90
2017-10-07T10:30:26.842Z,13.00
2017-10-07T10:32:54.931Z,13.00
2017-10-07T10:35:23.031Z,12.90
2017-10-07T10:37:51.101Z,12.90
2017-10-07T10:40:19.193Z,13.10
2017-10-07T10:42:47.783Z,13.50
2017-10-07T10:45:15.917Z,13.80
2017-10-07T10:47:44.717Z,14.30
2017-10-07T10:50:12.886Z,14.50
2017-10-07T10:52:40.968Z,14.80
2017-10-07T10:55:09.432Z,15.50
2017-10-07T10:57:37.530Z,15.50
2017-10-07T11:00:05.617Z,15.00
2017-10-07T11:02:33.683Z,14.50
2017-10-07T11:05:01.798Z,14.90
2017-10-07T11:09:59.357Z,15.50
2017-10-07T11:12:28.219Z,15.70
2017-10-07T11:14:56.687Z,15.70
2017-10-07T11:17:24.785Z,15.40
2017-10-07T11:19:53.671Z,15.20
2017-10-07T11:22:21.770Z,15.40
2017-10-07T11:24:50.289Z,15.80
2017-10-07T11:27:19.141Z,16.40
2017-10-07T11:29:47.651Z,17.00
2017-10-07T11:32:15.718Z,16.50
2017-10-07T11:34:43.786Z,15.70
2017-10-07T11:37:11.890Z,15.10
2017-10-07T11:39:40.741Z,14.80
2017-10-07T11:42:08.819Z,14.90
2017-10-07T11:44:37.019Z,14.80
2017-10-07T11:47:05.051Z,14.80
2017-10-07T11:49:33.578Z,14.80
2017-10-07T11:52:01.666Z,14.80
2017-10-07T11:54:29.773Z,14.40
2017-10-07T11:56:58.646Z,14.40
2017-10-07T11:59:27.860Z,14.30
2017-10-07T12:01:56.737Z,14.20
2017-10-07T12:04:24.842Z,14.10
2017-10-07T12:06:52.899Z,13.90
2017-10-07T12:09:21.373Z,13.90
2017-10-07T12:11:50.265Z,13.90
2017-10-07T12:14:18.359Z,13.90
2017-10-07T12:16:46.561Z,13.90
2017-10-07T12:19:14.611Z,13.90
2017-10-07T12:21:42.718Z,13.80
2017-10-07T12:24:10.805Z,13.70
2017-10-07T12:26:40.413Z,13.60
2017-10-07T12:29:08.489Z,13.50
2017-10-07T12:31:36.563Z,13.50
2017-10-07T12:34:04.661Z,13.60
2017-10-07T12:36:32.823Z,13.60
2017-10-07T12:39:01.354Z,13.70
2017-10-07T12:41:30.298Z,13.70
2017-10-07T12:43:58.826Z,13.70
2017-10-07T12:48:56.986Z,13.60
2017-10-07T12:51:25.201Z,13.50
2017-10-07T12:53:53.278Z,13.50
2017-10-07T12:56:21.747Z,13.50
2017-10-07T12:58:49.925Z,13.60
2017-10-07T13:01:17.982Z,13.60
2017-10-07T13:03:46.074Z,13.60
2017-10-07T13:06:15.458Z,13.70
2017-10-07T13:08:43.534Z,13.80
2017-10-07T13:11:12.840Z,13.60
2017-10-07T13:13:41.746Z,13.60
2017-10-07T13:16:10.633Z,13.80
2017-10-07T13:18:38.724Z,13.80
2017-10-07T13:21:08.299Z,13.80
2017-10-07T13:23:36.384Z,13.60
2017-10-07T13:26:04.467Z,13.60
2017-10-07T13:28:32.555Z,13.40
2017-10-07T13:31:00.646Z,13.50
2017-10-07T13:33:29.489Z,13.40
2017-10-07T13:38:27.674Z,13.20
2017-10-07T13:40:56.165Z,13.20
2017-10-07T13:43:24.282Z,13.20
2017-10-07T13:45:53.138Z,13.10
2017-10-07T13:48:21.216Z,13.00
2017-10-07T13:53:20.159Z,13.10
2017-10-07T13:55:48.621Z,13.00
2017-10-07T13:58:16.699Z,13.00
2017-10-07T14:00:45.938Z,13.20
2017-10-07T14:03:14.007Z,13.20
2017-10-07T14:05:43.585Z,13.30
2017-10-07T14:08:12.445Z,13.10
2017-10-07T14:13:11.386Z,13.00
2017-10-07T14:15:40.235Z,12.90
2017-10-07T14:18:08.305Z,12.90
2017-10-07T14:20:36.399Z,12.80
2017-10-07T14:23:04.471Z,12.80
2017-10-07T14:25:32.566Z,12.80
2017-10-07T14:28:01.406Z,12.90
2017-10-07T14:30:29.502Z,13.00
2017-10-07T14:32:57.570Z,13.00
2017-10-07T14:35:25.734Z,12.90
2017-10-07T14:37:53.809Z,12.90
2017-10-07T14:40:21.901Z,13.00
2017-10-07T14:42:50.006Z,13.10
2017-10-07T14:45:18.851Z,13.00
2017-10-07T14:47:46.928Z,13.00
2017-10-07T14:50:15.032Z,13.00
2017-10-07T14:52:43.896Z,12.90
2017-10-07T14:55:12.353Z,12.90
2017-10-07T14:57:41.194Z,12.80
2017-10-07T15:00:10.430Z,12.70
2017-10-07T15:02:38.521Z,12.60
2017-10-07T15:05:07.725Z,12.60
2017-10-07T15:07:35.822Z,12.50
2017-10-07T15:10:06.201Z,12.50
2017-10-07T15:12:34.306Z,12.50
2017-10-07T15:15:02.382Z,12.50
2017-10-07T15:17:31.261Z,12.50
2017-10-07T15:19:59.379Z,12.50
2017-10-07T15:22:27.502Z,12.50
2017-10-07T15:24:55.591Z,12.40
2017-10-07T15:27:25.182Z,12.40
2017-10-07T15:29:53.302Z,12.40
2017-10-07T15:32:21.415Z,12.50
2017-10-07T15:34:49.497Z,12.50
2017-10-07T15:37:17.590Z,12.50
2017-10-07T15:39:45.683Z,12.50
2017-10-07T15:42:15.270Z,12.40
2017-10-07T15:44:43.763Z,12.40
2017-10-07T15:47:12.235Z,12.40
2017-10-07T15:49:40.373Z,12.40
2017-10-07T15:52:09.268Z,12.40
2017-10-07T15:54:37.354Z,12.40
2017-10-07T15:57:05.925Z,12.40
2017-10-07T15:59:34.519Z,12.40
2017-10-07T16:02:02.695Z,12.40
2017-10-07T16:04:30.794Z,12.40
2017-10-07T16:06:59.659Z,12.40
2017-10-07T16:09:28.158Z,12.40
2017-10-07T16:11:56.230Z,12.30
2017-10-07T16:14:24.296Z,12.20
2017-10-07T16:16:52.398Z,12.20
2017-10-07T16:19:20.469Z,12.20
2017-10-07T16:21:48.951Z,12.10
2017-10-07T16:24:17.439Z,12.10
2017-10-07T16:26:45.537Z,12.00
2017-10-07T16:29:14.383Z,12.00
2017-10-07T16:31:43.227Z,12.00
2017-10-07T16:34:11.374Z,12.00
2017-10-07T16:36:40.174Z,12.00
2017-10-07T16:39:09.030Z,12.00
2017-10-07T16:41:37.507Z,12.00
2017-10-07T16:44:06.458Z,12.00
2017-10-07T16:46:34.927Z,12.10
2017-10-07T16:49:10.239Z,12.00
2017-10-07T16:54:08.187Z,12.10
2017-10-07T16:56:36.283Z,12.00
2017-10-07T16:59:05.146Z,11.90
2017-10-07T17:04:04.361Z,11.80
2017-10-07T17:06:32.457Z,11.80
2017-10-07T17:09:01.307Z,11.80
2017-10-07T17:11:30.162Z,11.70
2017-10-07T17:13:59.003Z,11.60
2017-10-07T17:16:27.107Z,11.50
2017-10-07T17:18:55.961Z,11.50
2017-10-07T17:21:25.552Z,11.40
2017-10-07T17:23:53.642Z,11.40
2017-10-07T17:28:51.509Z,11.40
2017-10-07T17:31:19.586Z,11.50
2017-10-07T17:33:47.665Z,11.50
2017-10-07T17:36:15.835Z,11.50
2017-10-07T17:38:43.910Z,11.50
2017-10-07T17:41:11.996Z,11.60
2017-10-07T17:43:40.087Z,11.60
2017-10-07T17:46:09.665Z,11.60
2017-10-07T17:48:37.770Z,11.60
2017-10-07T17:51:06.605Z,11.60
2017-10-07T17:53:34.683Z,11.60
2017-10-07T17:56:02.794Z,11.60
2017-10-07T17:58:31.635Z,11.60
2017-10-07T18:00:59.715Z,11.60
2017-10-07T18:03:27.817Z,11.70
2017-10-07T18:05:56.299Z,11.90
2017-10-07T18:08:24.388Z,11.80
2017-10-07T18:13:21.859Z,11.70
2017-10-07T18:15:50.010Z,11.70
2017-10-07T18:18:19.223Z,11.60
2017-10-07T18:20:48.716Z,11.70
2017-10-07T18:23:18.300Z,11.70
2017-10-07T18:25:46.378Z,11.70
2017-10-07T18:28:14.486Z,11.60
2017-10-07T18:30:42.557Z,11.60
2017-10-07T18:33:11.411Z,11.60
2017-10-07T18:35:40.634Z,11.60
2017-10-07T18:38:08.733Z,11.60
2017-10-07T18:40:37.982Z,11.60
2017-10-07T18:43:06.075Z,11.60
2017-10-07T18:45:34.154Z,11.60
2017-10-07T18:48:02.250Z,11.60
2017-10-07T18:50:31.130Z,11.60
2017-10-07T18:52:59.237Z,11.60
2017-10-07T18:55:27.327Z,11.60
2017-10-07T18:57:55.405Z,11.50
2017-10-07T19:00:23.920Z,11.50
2017-10-07T19:02:51.999Z,11.50
2017-10-07T19:05:20.090Z,11.50
2017-10-07T19:07:49.331Z,11.50
2017-10-07T19:12:46.756Z,11.60
2017-10-07T19:15:15.625Z,11.60
2017-10-07T19:17:43.712Z,11.60
2017-10-07T19:20:12.928Z,11.50
2017-10-07T19:22:42.166Z,11.50
2017-10-07T19:25:11.040Z,11.50
2017-10-07T19:27:39.897Z,11.50
2017-10-07T19:30:08.738Z,11.50
2017-10-07T19:32:37.816Z,11.50
2017-10-07T19:35:07.429Z,11.50
2017-10-07T19:37:35.509Z,11.50
2017-10-07T19:40:04.002Z,11.50
2017-10-07T19:42:32.110Z,11.50
2017-10-07T19:47:29.531Z,11.40
2017-10-07T19:49:57.627Z,11.40
2017-10-07T19:52:27.698Z,11.40
2017-10-07T19:54:55.803Z,11.40
2017-10-07T19:57:24.287Z,11.40
2017-10-07T19:59:52.381Z,11.30
2017-10-07T20:02:21.985Z,11.30
2017-10-07T20:04:50.111Z,11.30
2017-10-07T20:07:18.195Z,11.30
2017-10-07T20:09:49.014Z,11.30
2017-10-07T20:12:17.118Z,11.30
2017-10-07T20:14:45.197Z,11.30
2017-10-07T20:17:13.308Z,11.40
2017-10-07T20:19:42.173Z,11.30
2017-10-07T20:22:10.282Z,11.30
2017-10-07T20:24:39.131Z,11.30
2017-10-07T20:27:07.220Z,11.30
2017-10-07T20:29:35.310Z,11.20
2017-10-07T20:32:04.163Z,11.20
2017-10-07T20:34:32.671Z,11.20
2017-10-07T20:37:00.754Z,11.20
2017-10-07T20:39:28.884Z,11.30
2017-10-07T20:41:57.005Z,11.20
2017-10-07T20:44:25.855Z,11.20
2017-10-07T20:46:53.964Z,11.20
2017-10-07T20:49:22.475Z,11.10
2017-10-07T20:51:50.562Z,11.00
2017-10-07T20:54:18.667Z,11.00
2017-10-07T20:56:47.171Z,11.00
2017-10-07T20:59:16.020Z,11.30
2017-10-07T21:01:44.528Z,10.80
2017-10-07T21:04:12.616Z,10.70
2017-10-07T21:06:41.467Z,10.70
2017-10-07T21:09:09.544Z,10.60
2017-10-07T21:11:37.648Z,10.70
2017-10-07T21:14:07.496Z,10.60
2017-10-07T21:16:35.609Z,10.60
2017-10-07T21:19:03.688Z,10.70
2017-10-07T21:21:31.824Z,10.70
2017-10-07T21:23:59.915Z,10.70
2017-10-07T21:26:29.526Z,10.70
2017-10-07T21:28:58.022Z,10.80
2017-10-07T21:31:26.133Z,10.80
2017-10-07T21:33:54.995Z,10.90
2017-10-07T21:36:23.090Z,11.00
2017-10-07T21:38:51.944Z,11.00
2017-10-07T21:41:20.055Z,11.00
2017-10-07T21:43:48.933Z,11.00
2017-10-07T21:46:17.398Z,11.00
2017-10-07T21:48:46.613Z,11.10
2017-10-07T21:51:15.482Z,11.00
2017-10-07T21:53:43.566Z,11.10
2017-10-07T21:56:11.686Z,11.10
2017-10-07T21:58:39.783Z,11.10
2017-10-07T22:01:08.263Z,11.10
2017-10-07T22:03:37.155Z,11.00
2017-10-07T22:06:05.216Z,11.00
2017-10-07T22:08:33.300Z,11.00
2017-10-07T22:11:01.415Z,11.00
2017-10-07T22:13:29.532Z,11.00
2017-10-07T22:15:57.664Z,11.00
2017-10-07T22:18:26.533Z,11.00
2017-10-07T22:20:54.611Z,11.00
2017-10-07T22:23:23.099Z,11.00
2017-10-07T22:25:51.962Z,11.10
2017-10-07T22:28:20.088Z,11.00
2017-10-07T22:30:48.171Z,11.10
2017-10-07T22:33:16.246Z,11.10
2017-10-07T22:35:44.765Z,11.10
2017-10-07T22:38:12.846Z,11.10
2017-10-07T22:40:40.949Z,11.10
2017-10-07T22:43:09.030Z,11.10
2017-10-07T22:50:35.850Z,11.30
2017-10-07T22:53:03.954Z,11.30
2017-10-07T22:55:32.028Z,11.30
2017-10-07T22:58:00.906Z,11.30
2017-10-07T23:00:28.995Z,11.20
2017-10-07T23:02:57.846Z,11.10
2017-10-07T23:05:26.713Z,11.00
2017-10-07T23:07:54.834Z,11.00
2017-10-07T23:10:22.957Z,11.00
2017-10-07T23:12:51.033Z,10.90
2017-10-07T23:15:19.120Z,11.00
2017-10-07T23:17:47.210Z,11.00
2017-10-07T23:20:15.302Z,11.00
2017-10-07T23:22:44.172Z,11.00
2017-10-07T23:25:12.254Z,11.00
2017-10-07T23:27:40.384Z,10.90
2017-10-07T23:30:08.464Z,10.90
2017-10-07T23:32:36.543Z,10.90
2017-10-07T23:35:04.647Z,10.90
2017-10-07T23:37:32.727Z,10.90
2017-10-07T23:40:01.586Z,10.80
2017-10-07T23:42:29.696Z,10.80
2017-10-07T23:44:57.802Z,10.80
2017-10-07T23:47:25.905Z,10.80
2017-10-07T23:49:54.387Z,10.80
2017-10-07T23:52:22.492Z,10.80
2017-10-07T23:54:50.972Z,10.80
2017-10-07T23:57:19.843Z,10.80
2017-10-07T23:59:47.922Z,10.80
